sensor_id;sensor_type;location;lat;lon;timestamp;P1;durP1;ratioP1;P2;durP2;ratioP2
33954;SDS011;20233;50.804;7.126;2022-10-17T00:01:07;9.82;;;5.82;;
33954;SDS011;20233;50.804;7.126;2022-10-17T00:03:33;8.13;;;5.78;;
33954;SDS011;20233;50.804;7.126;2022-10-17T00:06:03;8.40;;;6.15;;
33954;SDS011;20233;50.804;7.126;2022-10-17T00:08:34;7.65;;;5.88;;
33954;SDS011;20233;50.804;7.126;2022-10-17T00:11:02;7.13;;;5.63;;
33954;SDS011;20233;50.804;7.126;2022-10-17T00:13:30;8.38;;;5.55;;
33954;SDS011;20233;50.804;7.126;2022-10-17T00:15:56;7.05;;;5.40;;
33954;SDS011;20233;50.804;7.126;2022-10-17T00:18:22;8.27;;;5.80;;
33954;SDS011;20233;50.804;7.126;2022-10-17T00:20:48;11.90;;;6.22;;
33954;SDS011;20233;50.804;7.126;2022-10-17T00:23:14;9.68;;;6.50;;
33954;SDS011;20233;50.804;7.126;2022-10-17T00:25:39;7.82;;;5.88;;
33954;SDS011;20233;50.804;7.126;2022-10-17T00:28:07;9.35;;;6.32;;
33954;SDS011;20233;50.804;7.126;2022-10-17T00:30:34;9.18;;;5.70;;
33954;SDS011;20233;50.804;7.126;2022-10-17T00:32:59;9.35;;;6.55;;
33954;SDS011;20233;50.804;7.126;2022-10-17T00:35:25;10.98;;;6.35;;
33954;SDS011;20233;50.804;7.126;2022-10-17T00:37:50;12.93;;;6.00;;
33954;SDS011;20233;50.804;7.126;2022-10-17T00:40:16;9.18;;;5.78;;
33954;SDS011;20233;50.804;7.126;2022-10-17T00:42:42;8.68;;;5.40;;
33954;SDS011;20233;50.804;7.126;2022-10-17T00:45:12;9.13;;;5.20;;
33954;SDS011;20233;50.804;7.126;2022-10-17T00:47:45;6.75;;;5.30;;
33954;SDS011;20233;50.804;7.126;2022-10-17T00:50:15;7.85;;;5.63;;
33954;SDS011;20233;50.804;7.126;2022-10-17T00:52:41;11.80;;;6.25;;
33954;SDS011;20233;50.804;7.126;2022-10-17T00:55:12;8.35;;;5.50;;
33954;SDS011;20233;50.804;7.126;2022-10-17T00:57:44;7.90;;;5.30;;
33954;SDS011;20233;50.804;7.126;2022-10-17T01:00:10;6.63;;;4.22;;
33954;SDS011;20233;50.804;7.126;2022-10-17T01:02:37;6.15;;;4.60;;
33954;SDS011;20233;50.804;7.126;2022-10-17T01:05:03;7.85;;;5.38;;
33954;SDS011;20233;50.804;7.126;2022-10-17T01:07:30;7.13;;;4.88;;
33954;SDS011;20233;50.804;7.126;2022-10-17T01:09:56;11.00;;;5.43;;
33954;SDS011;20233;50.804;7.126;2022-10-17T01:12:26;11.23;;;4.85;;
33954;SDS011;20233;50.804;7.126;2022-10-17T01:15:02;7.15;;;5.10;;
33954;SDS011;20233;50.804;7.126;2022-10-17T01:28:55;6.43;;;4.80;;
33954;SDS011;20233;50.804;7.126;2022-10-17T01:34:02;7.38;;;4.90;;
33954;SDS011;20233;50.804;7.126;2022-10-17T01:36:47;6.97;;;4.65;;
33954;SDS011;20233;50.804;7.126;2022-10-17T01:47:18;6.03;;;4.22;;
33954;SDS011;20233;50.804;7.126;2022-10-17T01:49:46;6.20;;;4.60;;
33954;SDS011;20233;50.804;7.126;2022-10-17T01:52:26;6.28;;;4.60;;
33954;SDS011;20233;50.804;7.126;2022-10-17T01:55:12;6.22;;;4.45;;
33954;SDS011;20233;50.804;7.126;2022-10-17T01:57:45;6.25;;;4.40;;
33954;SDS011;20233;50.804;7.126;2022-10-17T02:00:15;6.43;;;4.40;;
33954;SDS011;20233;50.804;7.126;2022-10-17T02:02:45;8.15;;;4.57;;
33954;SDS011;20233;50.804;7.126;2022-10-17T02:05:12;10.90;;;5.00;;
33954;SDS011;20233;50.804;7.126;2022-10-17T02:07:40;9.70;;;4.00;;
33954;SDS011;20233;50.804;7.126;2022-10-17T02:10:08;5.18;;;4.10;;
33954;SDS011;20233;50.804;7.126;2022-10-17T02:12:52;8.93;;;4.40;;
33954;SDS011;20233;50.804;7.126;2022-10-17T02:18:15;6.53;;;4.27;;
33954;SDS011;20233;50.804;7.126;2022-10-17T02:20:59;6.68;;;4.47;;
33954;SDS011;20233;50.804;7.126;2022-10-17T02:26:18;6.07;;;4.00;;
33954;SDS011;20233;50.804;7.126;2022-10-17T02:28:58;10.10;;;4.60;;
33954;SDS011;20233;50.804;7.126;2022-10-17T02:31:43;10.57;;;4.70;;
33954;SDS011;20233;50.804;7.126;2022-10-17T02:36:49;11.60;;;4.82;;
33954;SDS011;20233;50.804;7.126;2022-10-17T02:39:18;8.13;;;3.92;;
33954;SDS011;20233;50.804;7.126;2022-10-17T02:41:47;6.95;;;4.38;;
33954;SDS011;20233;50.804;7.126;2022-10-17T02:44:14;7.10;;;4.60;;
33954;SDS011;20233;50.804;7.126;2022-10-17T02:46:41;5.38;;;4.60;;
33954;SDS011;20233;50.804;7.126;2022-10-17T02:49:15;8.02;;;5.07;;
33954;SDS011;20233;50.804;7.126;2022-10-17T02:51:59;5.50;;;4.60;;
33954;SDS011;20233;50.804;7.126;2022-10-17T02:59:48;7.43;;;4.72;;
33954;SDS011;20233;50.804;7.126;2022-10-17T03:02:14;7.72;;;5.18;;
33954;SDS011;20233;50.804;7.126;2022-10-17T03:04:44;7.85;;;5.30;;
33954;SDS011;20233;50.804;7.126;2022-10-17T03:07:10;6.40;;;3.97;;
33954;SDS011;20233;50.804;7.126;2022-10-17T03:09:36;6.22;;;4.03;;
33954;SDS011;20233;50.804;7.126;2022-10-17T03:12:01;7.28;;;4.78;;
33954;SDS011;20233;50.804;7.126;2022-10-17T03:14:27;6.70;;;4.47;;
33954;SDS011;20233;50.804;7.126;2022-10-17T03:16:53;6.50;;;4.05;;
33954;SDS011;20233;50.804;7.126;2022-10-17T03:19:18;6.70;;;4.90;;
33954;SDS011;20233;50.804;7.126;2022-10-17T03:21:44;8.48;;;4.68;;
33954;SDS011;20233;50.804;7.126;2022-10-17T03:24:09;7.03;;;5.15;;
33954;SDS011;20233;50.804;7.126;2022-10-17T03:26:35;7.72;;;4.50;;
33954;SDS011;20233;50.804;7.126;2022-10-17T03:29:00;8.90;;;4.68;;
33954;SDS011;20233;50.804;7.126;2022-10-17T03:31:26;7.65;;;4.65;;
33954;SDS011;20233;50.804;7.126;2022-10-17T03:33:51;7.97;;;4.40;;
33954;SDS011;20233;50.804;7.126;2022-10-17T03:36:17;8.27;;;4.68;;
33954;SDS011;20233;50.804;7.126;2022-10-17T03:38:43;7.53;;;3.97;;
33954;SDS011;20233;50.804;7.126;2022-10-17T03:41:09;8.80;;;4.90;;
33954;SDS011;20233;50.804;7.126;2022-10-17T03:43:36;7.35;;;4.70;;
33954;SDS011;20233;50.804;7.126;2022-10-17T03:46:02;6.95;;;4.40;;
33954;SDS011;20233;50.804;7.126;2022-10-17T03:48:28;7.03;;;4.50;;
33954;SDS011;20233;50.804;7.126;2022-10-17T03:51:04;7.80;;;4.63;;
33954;SDS011;20233;50.804;7.126;2022-10-17T03:53:31;4.68;;;4.13;;
33954;SDS011;20233;50.804;7.126;2022-10-17T03:56:07;7.15;;;4.57;;
33954;SDS011;20233;50.804;7.126;2022-10-17T03:58:34;7.38;;;4.35;;
33954;SDS011;20233;50.804;7.126;2022-10-17T04:01:03;8.30;;;4.35;;
33954;SDS011;20233;50.804;7.126;2022-10-17T04:03:30;5.97;;;4.68;;
33954;SDS011;20233;50.804;7.126;2022-10-17T04:06:00;5.95;;;3.90;;
33954;SDS011;20233;50.804;7.126;2022-10-17T04:08:26;6.03;;;3.80;;
33954;SDS011;20233;50.804;7.126;2022-10-17T04:10:52;5.03;;;4.32;;
33954;SDS011;20233;50.804;7.126;2022-10-17T04:13:21;7.25;;;4.38;;
33954;SDS011;20233;50.804;7.126;2022-10-17T04:15:54;5.72;;;4.07;;
33954;SDS011;20233;50.804;7.126;2022-10-17T04:18:24;7.53;;;4.47;;
33954;SDS011;20233;50.804;7.126;2022-10-17T04:20:50;7.40;;;3.83;;
33954;SDS011;20233;50.804;7.126;2022-10-17T04:23:16;10.63;;;4.30;;
33954;SDS011;20233;50.804;7.126;2022-10-17T04:25:42;10.85;;;4.05;;
33954;SDS011;20233;50.804;7.126;2022-10-17T04:28:07;7.70;;;5.03;;
33954;SDS011;20233;50.804;7.126;2022-10-17T04:30:33;7.55;;;5.25;;
33954;SDS011;20233;50.804;7.126;2022-10-17T04:32:59;6.63;;;4.90;;
33954;SDS011;20233;50.804;7.126;2022-10-17T04:35:24;6.43;;;4.63;;
33954;SDS011;20233;50.804;7.126;2022-10-17T04:37:50;8.20;;;4.07;;
33954;SDS011;20233;50.804;7.126;2022-10-17T04:40:15;6.15;;;4.28;;
33954;SDS011;20233;50.804;7.126;2022-10-17T04:42:41;8.10;;;5.20;;
33954;SDS011;20233;50.804;7.126;2022-10-17T04:45:06;7.75;;;4.75;;
33954;SDS011;20233;50.804;7.126;2022-10-17T04:47:32;8.65;;;4.95;;
33954;SDS011;20233;50.804;7.126;2022-10-17T04:49:58;5.70;;;3.80;;
33954;SDS011;20233;50.804;7.126;2022-10-17T04:52:23;6.68;;;4.00;;
33954;SDS011;20233;50.804;7.126;2022-10-17T04:54:50;6.38;;;4.00;;
33954;SDS011;20233;50.804;7.126;2022-10-17T04:57:16;8.60;;;4.13;;
33954;SDS011;20233;50.804;7.126;2022-10-17T04:59:42;5.53;;;3.95;;
33954;SDS011;20233;50.804;7.126;2022-10-17T05:02:08;6.65;;;4.75;;
33954;SDS011;20233;50.804;7.126;2022-10-17T05:04:33;6.18;;;3.88;;
33954;SDS011;20233;50.804;7.126;2022-10-17T05:06:59;7.00;;;4.18;;
33954;SDS011;20233;50.804;7.126;2022-10-17T05:09:24;5.88;;;4.50;;
33954;SDS011;20233;50.804;7.126;2022-10-17T05:11:50;6.03;;;4.10;;
33954;SDS011;20233;50.804;7.126;2022-10-17T05:14:16;9.90;;;4.07;;
33954;SDS011;20233;50.804;7.126;2022-10-17T05:16:42;5.95;;;4.30;;
33954;SDS011;20233;50.804;7.126;2022-10-17T05:19:07;7.82;;;4.07;;
33954;SDS011;20233;50.804;7.126;2022-10-17T05:21:33;7.40;;;4.70;;
33954;SDS011;20233;50.804;7.126;2022-10-17T05:23:58;6.03;;;4.30;;
33954;SDS011;20233;50.804;7.126;2022-10-17T05:26:24;6.43;;;4.88;;
33954;SDS011;20233;50.804;7.126;2022-10-17T05:28:50;8.27;;;4.32;;
33954;SDS011;20233;50.804;7.126;2022-10-17T05:31:16;6.80;;;4.45;;
33954;SDS011;20233;50.804;7.126;2022-10-17T05:33:42;5.47;;;4.60;;
33954;SDS011;20233;50.804;7.126;2022-10-17T05:36:08;8.15;;;4.32;;
33954;SDS011;20233;50.804;7.126;2022-10-17T05:38:33;7.45;;;4.60;;
33954;SDS011;20233;50.804;7.126;2022-10-17T05:41:00;10.82;;;4.57;;
33954;SDS011;20233;50.804;7.126;2022-10-17T05:43:27;8.50;;;4.85;;
33954;SDS011;20233;50.804;7.126;2022-10-17T05:45:53;7.03;;;4.57;;
33954;SDS011;20233;50.804;7.126;2022-10-17T05:48:20;10.57;;;5.20;;
33954;SDS011;20233;50.804;7.126;2022-10-17T05:50:46;7.78;;;4.47;;
33954;SDS011;20233;50.804;7.126;2022-10-17T05:53:12;9.18;;;5.15;;
33954;SDS011;20233;50.804;7.126;2022-10-17T05:55:38;7.30;;;4.07;;
33954;SDS011;20233;50.804;7.126;2022-10-17T05:58:03;7.53;;;4.70;;
33954;SDS011;20233;50.804;7.126;2022-10-17T06:00:29;6.90;;;4.38;;
33954;SDS011;20233;50.804;7.126;2022-10-17T06:02:54;9.30;;;4.82;;
33954;SDS011;20233;50.804;7.126;2022-10-17T06:05:20;10.10;;;4.50;;
33954;SDS011;20233;50.804;7.126;2022-10-17T06:07:46;9.35;;;5.13;;
33954;SDS011;20233;50.804;7.126;2022-10-17T06:10:14;7.32;;;4.57;;
33954;SDS011;20233;50.804;7.126;2022-10-17T06:12:41;9.05;;;4.93;;
33954;SDS011;20233;50.804;7.126;2022-10-17T06:15:07;8.15;;;4.75;;
33954;SDS011;20233;50.804;7.126;2022-10-17T06:17:33;11.98;;;5.18;;
33954;SDS011;20233;50.804;7.126;2022-10-17T06:19:59;6.57;;;4.30;;
33954;SDS011;20233;50.804;7.126;2022-10-17T06:22:25;6.25;;;4.85;;
33954;SDS011;20233;50.804;7.126;2022-10-17T06:24:50;7.85;;;4.80;;
33954;SDS011;20233;50.804;7.126;2022-10-17T06:27:17;8.27;;;4.30;;
33954;SDS011;20233;50.804;7.126;2022-10-17T06:29:43;9.93;;;5.38;;
33954;SDS011;20233;50.804;7.126;2022-10-17T06:32:10;8.68;;;5.07;;
33954;SDS011;20233;50.804;7.126;2022-10-17T06:34:35;10.20;;;5.03;;
33954;SDS011;20233;50.804;7.126;2022-10-17T06:37:00;7.80;;;5.03;;
33954;SDS011;20233;50.804;7.126;2022-10-17T06:39:26;11.43;;;5.50;;
33954;SDS011;20233;50.804;7.126;2022-10-17T06:41:57;9.75;;;5.28;;
33954;SDS011;20233;50.804;7.126;2022-10-17T06:44:24;10.27;;;5.28;;
33954;SDS011;20233;50.804;7.126;2022-10-17T06:46:54;8.73;;;5.30;;
33954;SDS011;20233;50.804;7.126;2022-10-17T06:49:20;13.10;;;5.07;;
33954;SDS011;20233;50.804;7.126;2022-10-17T06:51:46;8.82;;;4.95;;
33954;SDS011;20233;50.804;7.126;2022-10-17T06:54:12;8.80;;;4.82;;
33954;SDS011;20233;50.804;7.126;2022-10-17T06:56:38;9.63;;;5.75;;
33954;SDS011;20233;50.804;7.126;2022-10-17T06:59:03;9.43;;;4.72;;
33954;SDS011;20233;50.804;7.126;2022-10-17T07:01:29;7.05;;;4.93;;
33954;SDS011;20233;50.804;7.126;2022-10-17T07:03:56;11.13;;;4.85;;
33954;SDS011;20233;50.804;7.126;2022-10-17T07:06:21;10.57;;;4.65;;
33954;SDS011;20233;50.804;7.126;2022-10-17T07:08:48;9.98;;;5.50;;
33954;SDS011;20233;50.804;7.126;2022-10-17T07:11:15;7.15;;;4.95;;
33954;SDS011;20233;50.804;7.126;2022-10-17T07:13:43;8.65;;;4.60;;
33954;SDS011;20233;50.804;7.126;2022-10-17T07:16:09;8.02;;;4.20;;
33954;SDS011;20233;50.804;7.126;2022-10-17T07:18:36;7.50;;;4.07;;
33954;SDS011;20233;50.804;7.126;2022-10-17T07:21:01;10.38;;;5.03;;
33954;SDS011;20233;50.804;7.126;2022-10-17T07:23:28;10.18;;;4.72;;
33954;SDS011;20233;50.804;7.126;2022-10-17T07:25:58;7.13;;;4.68;;
33954;SDS011;20233;50.804;7.126;2022-10-17T07:28:24;10.77;;;4.53;;
33954;SDS011;20233;50.804;7.126;2022-10-17T07:30:50;6.53;;;4.22;;
33954;SDS011;20233;50.804;7.126;2022-10-17T07:33:16;6.78;;;4.40;;
33954;SDS011;20233;50.804;7.126;2022-10-17T07:35:41;10.00;;;4.15;;
33954;SDS011;20233;50.804;7.126;2022-10-17T07:38:07;7.93;;;3.85;;
33954;SDS011;20233;50.804;7.126;2022-10-17T07:40:32;6.30;;;3.70;;
33954;SDS011;20233;50.804;7.126;2022-10-17T07:42:58;7.88;;;4.18;;
33954;SDS011;20233;50.804;7.126;2022-10-17T07:45:24;9.38;;;3.58;;
33954;SDS011;20233;50.804;7.126;2022-10-17T07:47:54;5.97;;;3.42;;
33954;SDS011;20233;50.804;7.126;2022-10-17T07:50:21;7.53;;;3.58;;
33954;SDS011;20233;50.804;7.126;2022-10-17T07:52:46;9.45;;;3.60;;
33954;SDS011;20233;50.804;7.126;2022-10-17T07:55:12;8.48;;;4.20;;
33954;SDS011;20233;50.804;7.126;2022-10-17T07:57:38;7.90;;;3.85;;
33954;SDS011;20233;50.804;7.126;2022-10-17T08:00:04;8.25;;;3.78;;
33954;SDS011;20233;50.804;7.126;2022-10-17T08:02:31;6.72;;;3.70;;
33954;SDS011;20233;50.804;7.126;2022-10-17T08:04:57;6.30;;;3.38;;
33954;SDS011;20233;50.804;7.126;2022-10-17T08:07:22;5.30;;;2.80;;
33954;SDS011;20233;50.804;7.126;2022-10-17T08:09:48;9.40;;;3.45;;
33954;SDS011;20233;50.804;7.126;2022-10-17T08:12:14;6.68;;;3.13;;
33954;SDS011;20233;50.804;7.126;2022-10-17T08:14:40;4.32;;;2.75;;
33954;SDS011;20233;50.804;7.126;2022-10-17T08:17:06;9.65;;;2.90;;
33954;SDS011;20233;50.804;7.126;2022-10-17T08:19:32;6.03;;;2.72;;
33954;SDS011;20233;50.804;7.126;2022-10-17T08:21:57;4.80;;;2.78;;
33954;SDS011;20233;50.804;7.126;2022-10-17T08:24:23;6.45;;;3.60;;
33954;SDS011;20233;50.804;7.126;2022-10-17T08:26:49;5.85;;;2.88;;
33954;SDS011;20233;50.804;7.126;2022-10-17T08:29:17;5.30;;;3.00;;
33954;SDS011;20233;50.804;7.126;2022-10-17T08:31:43;7.70;;;2.60;;
33954;SDS011;20233;50.804;7.126;2022-10-17T08:34:08;6.68;;;2.88;;
33954;SDS011;20233;50.804;7.126;2022-10-17T08:36:34;6.72;;;2.78;;
33954;SDS011;20233;50.804;7.126;2022-10-17T08:38:59;5.60;;;3.15;;
33954;SDS011;20233;50.804;7.126;2022-10-17T08:46:49;132.95;;;78.50;;
33954;SDS011;20233;50.804;7.126;2022-10-17T08:49:25;106.95;;;66.40;;
33954;SDS011;20233;50.804;7.126;2022-10-17T08:51:58;80.55;;;48.00;;
33954;SDS011;20233;50.804;7.126;2022-10-17T08:54:37;21.40;;;12.30;;
33954;SDS011;20233;50.804;7.126;2022-10-17T08:57:13;14.38;;;6.78;;
33954;SDS011;20233;50.804;7.126;2022-10-17T08:59:41;6.03;;;3.53;;
33954;SDS011;20233;50.804;7.126;2022-10-17T09:10:44;7.22;;;3.53;;
33954;SDS011;20233;50.804;7.126;2022-10-17T09:19:32;9.40;;;3.15;;
33954;SDS011;20233;50.804;7.126;2022-10-17T09:22:02;5.80;;;3.13;;
33954;SDS011;20233;50.804;7.126;2022-10-17T09:24:37;5.45;;;2.40;;
33954;SDS011;20233;50.804;7.126;2022-10-17T09:27:14;4.85;;;2.70;;
33954;SDS011;20233;50.804;7.126;2022-10-17T09:30:09;8.55;;;2.53;;
33954;SDS011;20233;50.804;7.126;2022-10-17T09:33:00;5.70;;;2.78;;
33954;SDS011;20233;50.804;7.126;2022-10-17T09:35:41;7.18;;;2.72;;
33954;SDS011;20233;50.804;7.126;2022-10-17T09:38:11;6.40;;;2.65;;
33954;SDS011;20233;50.804;7.126;2022-10-17T09:40:41;7.47;;;2.83;;
33954;SDS011;20233;50.804;7.126;2022-10-17T09:43:09;4.88;;;2.50;;
33954;SDS011;20233;50.804;7.126;2022-10-17T09:45:42;6.80;;;2.40;;
33954;SDS011;20233;50.804;7.126;2022-10-17T09:48:19;8.18;;;2.60;;
33954;SDS011;20233;50.804;7.126;2022-10-17T09:50:55;6.18;;;2.60;;
33954;SDS011;20233;50.804;7.126;2022-10-17T09:53:26;4.28;;;2.15;;
33954;SDS011;20233;50.804;7.126;2022-10-17T09:56:00;6.47;;;2.72;;
33954;SDS011;20233;50.804;7.126;2022-10-17T09:58:48;5.35;;;2.75;;
33954;SDS011;20233;50.804;7.126;2022-10-17T10:01:29;5.43;;;2.15;;
33954;SDS011;20233;50.804;7.126;2022-10-17T10:04:08;6.50;;;3.13;;
33954;SDS011;20233;50.804;7.126;2022-10-17T10:06:36;5.43;;;2.80;;
33954;SDS011;20233;50.804;7.126;2022-10-17T10:09:02;5.20;;;2.47;;
33954;SDS011;20233;50.804;7.126;2022-10-17T10:14:18;6.93;;;3.00;;
33954;SDS011;20233;50.804;7.126;2022-10-17T10:17:02;6.10;;;2.78;;
33954;SDS011;20233;50.804;7.126;2022-10-17T10:19:33;7.40;;;2.20;;
33954;SDS011;20233;50.804;7.126;2022-10-17T10:22:00;7.95;;;2.28;;
33954;SDS011;20233;50.804;7.126;2022-10-17T10:24:30;5.05;;;2.63;;
33954;SDS011;20233;50.804;7.126;2022-10-17T10:26:58;4.35;;;2.40;;
33954;SDS011;20233;50.804;7.126;2022-10-17T10:31:55;4.22;;;2.25;;
33954;SDS011;20233;50.804;7.126;2022-10-17T10:34:30;6.65;;;2.22;;
33954;SDS011;20233;50.804;7.126;2022-10-17T10:37:03;6.65;;;2.20;;
33954;SDS011;20233;50.804;7.126;2022-10-17T10:39:36;5.32;;;2.00;;
33954;SDS011;20233;50.804;7.126;2022-10-17T10:42:18;4.75;;;1.90;;
33954;SDS011;20233;50.804;7.126;2022-10-17T10:44:54;5.40;;;2.00;;
33954;SDS011;20233;50.804;7.126;2022-10-17T10:47:24;6.00;;;2.05;;
33954;SDS011;20233;50.804;7.126;2022-10-17T10:55:46;6.00;;;2.10;;
33954;SDS011;20233;50.804;7.126;2022-10-17T10:58:19;7.03;;;2.60;;
33954;SDS011;20233;50.804;7.126;2022-10-17T11:00:58;6.00;;;2.55;;
33954;SDS011;20233;50.804;7.126;2022-10-17T11:03:36;7.70;;;2.65;;
33954;SDS011;20233;50.804;7.126;2022-10-17T11:06:13;16.63;;;4.18;;
33954;SDS011;20233;50.804;7.126;2022-10-17T11:08:47;5.90;;;2.83;;
33954;SDS011;20233;50.804;7.126;2022-10-17T11:14:01;5.75;;;2.60;;
33954;SDS011;20233;50.804;7.126;2022-10-17T11:16:39;5.32;;;2.80;;
33954;SDS011;20233;50.804;7.126;2022-10-17T11:19:30;6.68;;;2.58;;
33954;SDS011;20233;50.804;7.126;2022-10-17T11:22:06;5.95;;;2.15;;
33954;SDS011;20233;50.804;7.126;2022-10-17T11:24:37;6.40;;;1.80;;
33954;SDS011;20233;50.804;7.126;2022-10-17T11:27:11;9.98;;;2.88;;
33954;SDS011;20233;50.804;7.126;2022-10-17T11:29:37;3.42;;;1.73;;
33954;SDS011;20233;50.804;7.126;2022-10-17T11:32:10;6.30;;;2.13;;
33954;SDS011;20233;50.804;7.126;2022-10-17T11:34:42;5.38;;;2.35;;
33954;SDS011;20233;50.804;7.126;2022-10-17T11:37:14;6.70;;;1.67;;
33954;SDS011;20233;50.804;7.126;2022-10-17T11:39:50;5.78;;;2.20;;
33954;SDS011;20233;50.804;7.126;2022-10-17T11:42:32;6.68;;;1.80;;
33954;SDS011;20233;50.804;7.126;2022-10-17T11:45:10;2.72;;;1.63;;
33954;SDS011;20233;50.804;7.126;2022-10-17T11:47:45;3.78;;;1.90;;
33954;SDS011;20233;50.804;7.126;2022-10-17T11:50:30;6.30;;;2.67;;
33954;SDS011;20233;50.804;7.126;2022-10-17T11:53:00;4.15;;;1.92;;
33954;SDS011;20233;50.804;7.126;2022-10-17T11:55:28;3.63;;;1.88;;
33954;SDS011;20233;50.804;7.126;2022-10-17T12:00:42;4.18;;;1.95;;
33954;SDS011;20233;50.804;7.126;2022-10-17T12:14:33;5.53;;;2.15;;
33954;SDS011;20233;50.804;7.126;2022-10-17T12:17:01;5.80;;;1.80;;
33954;SDS011;20233;50.804;7.126;2022-10-17T12:19:29;5.50;;;2.05;;
33954;SDS011;20233;50.804;7.126;2022-10-17T12:22:18;8.85;;;2.03;;
33954;SDS011;20233;50.804;7.126;2022-10-17T12:24:59;5.43;;;2.08;;
33954;SDS011;20233;50.804;7.126;2022-10-17T12:27:39;6.70;;;2.55;;
33954;SDS011;20233;50.804;7.126;2022-10-17T12:32:36;5.38;;;2.08;;
33954;SDS011;20233;50.804;7.126;2022-10-17T12:35:03;4.28;;;2.05;;
33954;SDS011;20233;50.804;7.126;2022-10-17T12:43:00;5.90;;;2.28;;
33954;SDS011;20233;50.804;7.126;2022-10-17T12:45:50;6.85;;;2.25;;
33954;SDS011;20233;50.804;7.126;2022-10-17T12:51:10;6.10;;;1.90;;
33954;SDS011;20233;50.804;7.126;2022-10-17T12:56:46;7.50;;;2.88;;
33954;SDS011;20233;50.804;7.126;2022-10-17T13:01:45;5.25;;;1.95;;
33954;SDS011;20233;50.804;7.126;2022-10-17T13:04:12;5.35;;;2.13;;
33954;SDS011;20233;50.804;7.126;2022-10-17T13:06:42;3.25;;;1.58;;
33954;SDS011;20233;50.804;7.126;2022-10-17T13:09:19;4.88;;;2.03;;
33954;SDS011;20233;50.804;7.126;2022-10-17T13:11:50;7.13;;;2.42;;
33954;SDS011;20233;50.804;7.126;2022-10-17T13:14:17;5.40;;;2.25;;
33954;SDS011;20233;50.804;7.126;2022-10-17T13:19:20;7.03;;;2.47;;
33954;SDS011;20233;50.804;7.126;2022-10-17T13:21:49;5.80;;;2.95;;
33954;SDS011;20233;50.804;7.126;2022-10-17T13:24:22;5.68;;;1.95;;
33954;SDS011;20233;50.804;7.126;2022-10-17T13:26:54;5.75;;;2.20;;
33954;SDS011;20233;50.804;7.126;2022-10-17T13:29:19;9.63;;;2.15;;
33954;SDS011;20233;50.804;7.126;2022-10-17T13:31:54;9.05;;;2.35;;
33954;SDS011;20233;50.804;7.126;2022-10-17T13:34:23;6.70;;;2.38;;
33954;SDS011;20233;50.804;7.126;2022-10-17T13:36:53;6.00;;;1.85;;
33954;SDS011;20233;50.804;7.126;2022-10-17T13:39:25;5.47;;;2.25;;
33954;SDS011;20233;50.804;7.126;2022-10-17T13:41:54;5.32;;;2.42;;
33954;SDS011;20233;50.804;7.126;2022-10-17T13:44:26;7.72;;;2.22;;
33954;SDS011;20233;50.804;7.126;2022-10-17T13:46:56;6.05;;;2.35;;
33954;SDS011;20233;50.804;7.126;2022-10-17T13:49:36;5.25;;;2.05;;
33954;SDS011;20233;50.804;7.126;2022-10-17T13:52:05;5.00;;;2.55;;
33954;SDS011;20233;50.804;7.126;2022-10-17T13:54:39;6.80;;;2.10;;
33954;SDS011;20233;50.804;7.126;2022-10-17T13:57:16;6.78;;;2.05;;
33954;SDS011;20233;50.804;7.126;2022-10-17T13:59:45;4.60;;;2.03;;
33954;SDS011;20233;50.804;7.126;2022-10-17T14:02:16;6.22;;;2.20;;
33954;SDS011;20233;50.804;7.126;2022-10-17T14:04:44;5.63;;;2.05;;
33954;SDS011;20233;50.804;7.126;2022-10-17T14:07:27;9.07;;;2.75;;
33954;SDS011;20233;50.804;7.126;2022-10-17T14:10:04;7.38;;;2.50;;
33954;SDS011;20233;50.804;7.126;2022-10-17T14:12:41;3.38;;;2.00;;
33954;SDS011;20233;50.804;7.126;2022-10-17T14:15:08;3.75;;;1.83;;
33954;SDS011;20233;50.804;7.126;2022-10-17T14:17:39;6.85;;;2.72;;
33954;SDS011;20233;50.804;7.126;2022-10-17T14:20:05;4.40;;;2.60;;
33954;SDS011;20233;50.804;7.126;2022-10-17T14:22:34;8.63;;;2.50;;
33954;SDS011;20233;50.804;7.126;2022-10-17T14:25:01;7.72;;;2.35;;
33954;SDS011;20233;50.804;7.126;2022-10-17T14:29:54;6.78;;;2.33;;
33954;SDS011;20233;50.804;7.126;2022-10-17T14:32:24;8.32;;;2.33;;
33954;SDS011;20233;50.804;7.126;2022-10-17T14:34:53;5.60;;;2.15;;
33954;SDS011;20233;50.804;7.126;2022-10-17T14:37:29;8.55;;;2.15;;
33954;SDS011;20233;50.804;7.126;2022-10-17T14:40:03;6.15;;;2.42;;
33954;SDS011;20233;50.804;7.126;2022-10-17T14:42:30;6.72;;;2.15;;
33954;SDS011;20233;50.804;7.126;2022-10-17T14:45:02;5.88;;;1.92;;
33954;SDS011;20233;50.804;7.126;2022-10-17T14:47:31;7.10;;;2.03;;
33954;SDS011;20233;50.804;7.126;2022-10-17T14:52:34;6.43;;;2.50;;
33954;SDS011;20233;50.804;7.126;2022-10-17T14:55:24;7.07;;;2.05;;
33954;SDS011;20233;50.804;7.126;2022-10-17T14:57:50;6.40;;;1.88;;
33954;SDS011;20233;50.804;7.126;2022-10-17T15:00:16;3.55;;;1.80;;
33954;SDS011;20233;50.804;7.126;2022-10-17T15:02:43;8.27;;;1.67;;
33954;SDS011;20233;50.804;7.126;2022-10-17T15:05:10;5.47;;;1.75;;
33954;SDS011;20233;50.804;7.126;2022-10-17T15:07:36;5.43;;;1.65;;
33954;SDS011;20233;50.804;7.126;2022-10-17T15:10:02;4.82;;;1.77;;
33954;SDS011;20233;50.804;7.126;2022-10-17T15:12:28;3.95;;;1.17;;
33954;SDS011;20233;50.804;7.126;2022-10-17T15:14:54;3.97;;;1.50;;
33954;SDS011;20233;50.804;7.126;2022-10-17T15:17:22;5.75;;;1.42;;
33954;SDS011;20233;50.804;7.126;2022-10-17T15:19:53;6.30;;;1.40;;
33954;SDS011;20233;50.804;7.126;2022-10-17T15:22:19;4.40;;;1.35;;
33954;SDS011;20233;50.804;7.126;2022-10-17T15:24:45;4.93;;;1.92;;
33954;SDS011;20233;50.804;7.126;2022-10-17T15:27:14;4.15;;;1.15;;
33954;SDS011;20233;50.804;7.126;2022-10-17T15:29:41;5.75;;;1.35;;
33954;SDS011;20233;50.804;7.126;2022-10-17T15:32:07;3.60;;;1.42;;
33954;SDS011;20233;50.804;7.126;2022-10-17T15:34:33;3.58;;;1.27;;
33954;SDS011;20233;50.804;7.126;2022-10-17T15:36:59;4.55;;;1.27;;
33954;SDS011;20233;50.804;7.126;2022-10-17T15:39:25;8.75;;;1.45;;
33954;SDS011;20233;50.804;7.126;2022-10-17T15:41:50;4.40;;;1.20;;
33954;SDS011;20233;50.804;7.126;2022-10-17T15:44:16;6.13;;;1.13;;
33954;SDS011;20233;50.804;7.126;2022-10-17T15:46:41;7.15;;;0.85;;
33954;SDS011;20233;50.804;7.126;2022-10-17T15:49:12;5.60;;;1.27;;
33954;SDS011;20233;50.804;7.126;2022-10-17T15:51:38;5.15;;;1.10;;
33954;SDS011;20233;50.804;7.126;2022-10-17T15:54:05;7.57;;;1.02;;
33954;SDS011;20233;50.804;7.126;2022-10-17T15:56:32;7.80;;;1.70;;
33954;SDS011;20233;50.804;7.126;2022-10-17T15:59:04;4.10;;;1.00;;
33954;SDS011;20233;50.804;7.126;2022-10-17T16:01:38;7.25;;;1.33;;
33954;SDS011;20233;50.804;7.126;2022-10-17T16:04:04;3.72;;;1.10;;
33954;SDS011;20233;50.804;7.126;2022-10-17T16:06:30;6.20;;;1.52;;
33954;SDS011;20233;50.804;7.126;2022-10-17T16:08:55;6.45;;;1.85;;
33954;SDS011;20233;50.804;7.126;2022-10-17T16:11:31;5.60;;;1.00;;
33954;SDS011;20233;50.804;7.126;2022-10-17T16:14:05;4.60;;;0.95;;
33954;SDS011;20233;50.804;7.126;2022-10-17T16:16:42;4.82;;;0.88;;
33954;SDS011;20233;50.804;7.126;2022-10-17T16:19:07;4.40;;;1.27;;
33954;SDS011;20233;50.804;7.126;2022-10-17T16:21:37;4.60;;;1.08;;
33954;SDS011;20233;50.804;7.126;2022-10-17T16:24:04;6.28;;;1.50;;
33954;SDS011;20233;50.804;7.126;2022-10-17T16:26:30;7.80;;;1.50;;
33954;SDS011;20233;50.804;7.126;2022-10-17T16:28:56;6.57;;;1.63;;
33954;SDS011;20233;50.804;7.126;2022-10-17T16:31:27;8.10;;;1.48;;
33954;SDS011;20233;50.804;7.126;2022-10-17T16:33:56;7.00;;;1.10;;
33954;SDS011;20233;50.804;7.126;2022-10-17T16:36:23;11.18;;;2.15;;
33954;SDS011;20233;50.804;7.126;2022-10-17T16:38:49;3.92;;;1.27;;
33954;SDS011;20233;50.804;7.126;2022-10-17T16:43:51;6.63;;;1.35;;
33954;SDS011;20233;50.804;7.126;2022-10-17T16:46:18;3.50;;;0.95;;
33954;SDS011;20233;50.804;7.126;2022-10-17T16:48:45;4.25;;;1.35;;